Weather at Malpensa International Airport

Public forecast

Using degrees Celsius for public forecast. Weather courtesy of forecast.io.

Current aviation weather report (METAR) for Malpensa International Airport

Retrieved 2020/11/28 09:20 UTC (23 minutes ago):

LIMC 280920Z 01002KT 2500 BR NSC 06/04 Q1020 NOSIG

Aviation forecast (TAF) for Malpensa International Airport

Retrieved 2020/11/28 06:00 UTC (4 hours ago):

TAF LIMC 280500Z 2806/2912 VRB05KT 4000 BR BKN070 TEMPO 2806/2808 1500 BCFG BECMG 2808/2810 7000 TEMPO 2900/2907 3000 BCFG